sensor_id;sensor_type;location;lat;lon;timestamp;temperature;humidity
4701;DHT22;8724;51.272;6.554;2023-07-31T00:01:58;19.80;99.90
4701;DHT22;8724;51.272;6.554;2023-07-31T00:04:27;19.80;99.90
4701;DHT22;8724;51.272;6.554;2023-07-31T00:06:55;19.70;99.90
4701;DHT22;8724;51.272;6.554;2023-07-31T00:09:24;19.70;99.90
4701;DHT22;8724;51.272;6.554;2023-07-31T00:11:52;19.70;99.90
4701;DHT22;8724;51.272;6.554;2023-07-31T00:14:21;19.70;99.90
4701;DHT22;8724;51.272;6.554;2023-07-31T00:16:51;19.70;99.90
4701;DHT22;8724;51.272;6.554;2023-07-31T00:19:19;19.70;99.90
4701;DHT22;8724;51.272;6.554;2023-07-31T00:21:47;19.70;99.90
4701;DHT22;8724;51.272;6.554;2023-07-31T00:24:16;19.70;99.90
4701;DHT22;8724;51.272;6.554;2023-07-31T00:26:44;19.70;99.90
4701;DHT22;8724;51.272;6.554;2023-07-31T00:29:12;19.70;99.90
4701;DHT22;8724;51.272;6.554;2023-07-31T00:31:41;19.70;99.90
4701;DHT22;8724;51.272;6.554;2023-07-31T00:34:11;19.70;99.90
4701;DHT22;8724;51.272;6.554;2023-07-31T00:36:39;19.70;99.90
4701;DHT22;8724;51.272;6.554;2023-07-31T00:39:08;19.80;99.90
4701;DHT22;8724;51.272;6.554;2023-07-31T00:41:36;19.70;99.90
4701;DHT22;8724;51.272;6.554;2023-07-31T00:44:05;19.70;99.90
4701;DHT22;8724;51.272;6.554;2023-07-31T00:46:33;19.70;99.90
4701;DHT22;8724;51.272;6.554;2023-07-31T00:49:02;19.70;99.90
4701;DHT22;8724;51.272;6.554;2023-07-31T00:51:57;19.70;99.90
4701;DHT22;8724;51.272;6.554;2023-07-31T00:54:26;19.70;99.90
4701;DHT22;8724;51.272;6.554;2023-07-31T00:56:58;19.70;99.90
4701;DHT22;8724;51.272;6.554;2023-07-31T00:59:28;19.70;99.90
4701;DHT22;8724;51.272;6.554;2023-07-31T01:01:56;19.70;99.90
4701;DHT22;8724;51.272;6.554;2023-07-31T01:04:25;19.70;99.90
4701;DHT22;8724;51.272;6.554;2023-07-31T01:06:59;19.70;99.90
4701;DHT22;8724;51.272;6.554;2023-07-31T01:09:40;19.70;99.90
4701;DHT22;8724;51.272;6.554;2023-07-31T01:12:14;19.70;99.90
4701;DHT22;8724;51.272;6.554;2023-07-31T01:14:51;19.70;99.90
4701;DHT22;8724;51.272;6.554;2023-07-31T01:17:20;19.70;99.90
4701;DHT22;8724;51.272;6.554;2023-07-31T01:19:50;19.70;99.90
4701;DHT22;8724;51.272;6.554;2023-07-31T01:22:31;19.70;99.90
4701;DHT22;8724;51.272;6.554;2023-07-31T01:25:12;19.70;99.90
4701;DHT22;8724;51.272;6.554;2023-07-31T01:27:53;19.70;99.90
4701;DHT22;8724;51.272;6.554;2023-07-31T01:30:25;19.70;99.90
4701;DHT22;8724;51.272;6.554;2023-07-31T01:32:56;19.70;99.90
4701;DHT22;8724;51.272;6.554;2023-07-31T01:35:25;19.70;99.90
4701;DHT22;8724;51.272;6.554;2023-07-31T01:37:54;19.70;99.90
4701;DHT22;8724;51.272;6.554;2023-07-31T01:40:23;19.70;99.90
4701;DHT22;8724;51.272;6.554;2023-07-31T01:42:52;19.70;99.90
4701;DHT22;8724;51.272;6.554;2023-07-31T01:45:21;19.70;99.90
4701;DHT22;8724;51.272;6.554;2023-07-31T01:47:49;19.70;99.90
4701;DHT22;8724;51.272;6.554;2023-07-31T01:50:18;19.70;99.90
4701;DHT22;8724;51.272;6.554;2023-07-31T01:52:46;19.70;99.90
4701;DHT22;8724;51.272;6.554;2023-07-31T01:55:15;19.70;99.90
4701;DHT22;8724;51.272;6.554;2023-07-31T01:57:43;19.70;99.90
4701;DHT22;8724;51.272;6.554;2023-07-31T02:00:13;19.70;99.90
4701;DHT22;8724;51.272;6.554;2023-07-31T02:02:43;19.70;99.90
4701;DHT22;8724;51.272;6.554;2023-07-31T02:05:14;19.70;99.90
4701;DHT22;8724;51.272;6.554;2023-07-31T02:07:44;19.70;99.90
4701;DHT22;8724;51.272;6.554;2023-07-31T02:10:12;19.60;99.90
4701;DHT22;8724;51.272;6.554;2023-07-31T02:12:41;19.70;99.90
4701;DHT22;8724;51.272;6.554;2023-07-31T02:15:13;19.60;99.90
4701;DHT22;8724;51.272;6.554;2023-07-31T02:17:42;19.70;99.90
4701;DHT22;8724;51.272;6.554;2023-07-31T02:20:14;19.70;99.90
4701;DHT22;8724;51.272;6.554;2023-07-31T02:22:42;19.60;99.90
4701;DHT22;8724;51.272;6.554;2023-07-31T02:25:11;19.70;99.90
4701;DHT22;8724;51.272;6.554;2023-07-31T02:27:39;19.60;99.90
4701;DHT22;8724;51.272;6.554;2023-07-31T02:30:09;19.60;99.90
4701;DHT22;8724;51.272;6.554;2023-07-31T02:32:39;19.60;99.90
4701;DHT22;8724;51.272;6.554;2023-07-31T02:35:08;19.60;99.90
4701;DHT22;8724;51.272;6.554;2023-07-31T02:37:36;19.70;99.90
4701;DHT22;8724;51.272;6.554;2023-07-31T02:40:06;19.70;99.90
4701;DHT22;8724;51.272;6.554;2023-07-31T02:42:35;19.60;99.90
4701;DHT22;8724;51.272;6.554;2023-07-31T02:45:05;19.70;99.90
4701;DHT22;8724;51.272;6.554;2023-07-31T02:47:34;19.70;99.90
4701;DHT22;8724;51.272;6.554;2023-07-31T02:50:04;19.70;99.90
4701;DHT22;8724;51.272;6.554;2023-07-31T02:52:33;19.70;99.90
4701;DHT22;8724;51.272;6.554;2023-07-31T02:55:01;19.60;99.90
4701;DHT22;8724;51.272;6.554;2023-07-31T02:57:30;19.70;99.90
4701;DHT22;8724;51.272;6.554;2023-07-31T02:59:58;19.70;99.90
4701;DHT22;8724;51.272;6.554;2023-07-31T03:02:26;19.70;99.90
4701;DHT22;8724;51.272;6.554;2023-07-31T03:04:55;19.70;99.90
4701;DHT22;8724;51.272;6.554;2023-07-31T03:07:25;19.70;99.90
4701;DHT22;8724;51.272;6.554;2023-07-31T03:09:53;19.70;99.90
4701;DHT22;8724;51.272;6.554;2023-07-31T03:12:22;19.70;99.90
4701;DHT22;8724;51.272;6.554;2023-07-31T03:14:50;19.70;99.90
4701;DHT22;8724;51.272;6.554;2023-07-31T03:17:18;19.70;99.90
4701;DHT22;8724;51.272;6.554;2023-07-31T03:19:47;19.60;99.90
4701;DHT22;8724;51.272;6.554;2023-07-31T03:22:16;19.70;99.90
4701;DHT22;8724;51.272;6.554;2023-07-31T03:24:47;19.70;99.90
4701;DHT22;8724;51.272;6.554;2023-07-31T03:27:15;19.70;99.90
4701;DHT22;8724;51.272;6.554;2023-07-31T03:29:44;19.70;99.90
4701;DHT22;8724;51.272;6.554;2023-07-31T03:32:13;19.70;99.90
4701;DHT22;8724;51.272;6.554;2023-07-31T03:34:41;19.70;99.90
4701;DHT22;8724;51.272;6.554;2023-07-31T03:37:10;19.70;99.90
4701;DHT22;8724;51.272;6.554;2023-07-31T03:39:38;19.70;99.90
4701;DHT22;8724;51.272;6.554;2023-07-31T03:42:08;19.70;99.90
4701;DHT22;8724;51.272;6.554;2023-07-31T03:44:36;19.70;99.90
4701;DHT22;8724;51.272;6.554;2023-07-31T03:47:05;19.70;99.90
4701;DHT22;8724;51.272;6.554;2023-07-31T03:49:34;19.70;99.90
4701;DHT22;8724;51.272;6.554;2023-07-31T03:52:02;19.70;99.90
4701;DHT22;8724;51.272;6.554;2023-07-31T03:54:31;19.70;99.90
4701;DHT22;8724;51.272;6.554;2023-07-31T03:56:59;19.70;99.90
4701;DHT22;8724;51.272;6.554;2023-07-31T03:59:29;19.70;99.90
4701;DHT22;8724;51.272;6.554;2023-07-31T04:01:58;19.70;99.90
4701;DHT22;8724;51.272;6.554;2023-07-31T04:04:26;19.70;99.90
4701;DHT22;8724;51.272;6.554;2023-07-31T04:06:55;19.70;99.90
4701;DHT22;8724;51.272;6.554;2023-07-31T04:09:23;19.70;99.90
4701;DHT22;8724;51.272;6.554;2023-07-31T04:11:52;19.70;99.90
4701;DHT22;8724;51.272;6.554;2023-07-31T04:14:20;19.70;99.90
4701;DHT22;8724;51.272;6.554;2023-07-31T04:16:50;19.70;99.90
4701;DHT22;8724;51.272;6.554;2023-07-31T04:19:19;19.70;99.90
4701;DHT22;8724;51.272;6.554;2023-07-31T04:21:48;19.70;99.90
4701;DHT22;8724;51.272;6.554;2023-07-31T04:24:16;19.70;99.90
4701;DHT22;8724;51.272;6.554;2023-07-31T04:26:52;19.70;99.90
4701;DHT22;8724;51.272;6.554;2023-07-31T04:29:20;19.70;99.90
4701;DHT22;8724;51.272;6.554;2023-07-31T04:31:51;19.70;99.90
4701;DHT22;8724;51.272;6.554;2023-07-31T04:34:20;19.70;99.90
4701;DHT22;8724;51.272;6.554;2023-07-31T04:36:48;19.70;99.90
4701;DHT22;8724;51.272;6.554;2023-07-31T04:39:17;19.70;99.90
4701;DHT22;8724;51.272;6.554;2023-07-31T04:41:45;19.70;99.90
4701;DHT22;8724;51.272;6.554;2023-07-31T04:44:14;19.70;99.90
4701;DHT22;8724;51.272;6.554;2023-07-31T04:46:42;19.70;99.90
4701;DHT22;8724;51.272;6.554;2023-07-31T04:49:12;19.70;99.90
4701;DHT22;8724;51.272;6.554;2023-07-31T04:51:41;19.70;99.90
4701;DHT22;8724;51.272;6.554;2023-07-31T04:54:09;19.70;99.90
4701;DHT22;8724;51.272;6.554;2023-07-31T04:56:40;19.70;99.90
4701;DHT22;8724;51.272;6.554;2023-07-31T04:59:27;19.70;99.90
4701;DHT22;8724;51.272;6.554;2023-07-31T05:02:12;19.70;99.90
4701;DHT22;8724;51.272;6.554;2023-07-31T05:04:54;19.80;99.90
4701;DHT22;8724;51.272;6.554;2023-07-31T05:07:23;19.70;99.90
4701;DHT22;8724;51.272;6.554;2023-07-31T05:09:58;19.70;99.90
4701;DHT22;8724;51.272;6.554;2023-07-31T05:12:28;19.80;99.90
4701;DHT22;8724;51.272;6.554;2023-07-31T05:14:56;19.70;99.90
4701;DHT22;8724;51.272;6.554;2023-07-31T05:17:30;19.70;99.90
4701;DHT22;8724;51.272;6.554;2023-07-31T05:20:15;19.70;99.90
4701;DHT22;8724;51.272;6.554;2023-07-31T05:22:46;19.70;99.90
4701;DHT22;8724;51.272;6.554;2023-07-31T05:25:17;19.70;99.90
4701;DHT22;8724;51.272;6.554;2023-07-31T05:27:53;19.70;99.90
4701;DHT22;8724;51.272;6.554;2023-07-31T05:30:27;19.70;99.90
4701;DHT22;8724;51.272;6.554;2023-07-31T05:33:04;19.80;99.90
4701;DHT22;8724;51.272;6.554;2023-07-31T05:35:43;19.80;99.90
4701;DHT22;8724;51.272;6.554;2023-07-31T05:38:27;19.70;99.90
4701;DHT22;8724;51.272;6.554;2023-07-31T05:41:08;19.80;99.90
4701;DHT22;8724;51.272;6.554;2023-07-31T05:43:46;19.80;99.90
4701;DHT22;8724;51.272;6.554;2023-07-31T05:46:51;19.80;99.90
4701;DHT22;8724;51.272;6.554;2023-07-31T05:49:46;19.80;99.90
4701;DHT22;8724;51.272;6.554;2023-07-31T05:53:02;19.80;99.90
4701;DHT22;8724;51.272;6.554;2023-07-31T05:55:34;19.80;99.90
4701;DHT22;8724;51.272;6.554;2023-07-31T05:58:06;19.80;99.90
4701;DHT22;8724;51.272;6.554;2023-07-31T06:00:34;19.80;99.90
4701;DHT22;8724;51.272;6.554;2023-07-31T06:03:03;19.80;99.90
4701;DHT22;8724;51.272;6.554;2023-07-31T06:05:32;19.80;99.90
4701;DHT22;8724;51.272;6.554;2023-07-31T06:08:02;19.80;99.90
4701;DHT22;8724;51.272;6.554;2023-07-31T06:10:31;19.80;99.90
4701;DHT22;8724;51.272;6.554;2023-07-31T06:13:00;19.80;99.90
4701;DHT22;8724;51.272;6.554;2023-07-31T06:15:28;19.80;99.90
4701;DHT22;8724;51.272;6.554;2023-07-31T06:17:57;19.70;99.90
4701;DHT22;8724;51.272;6.554;2023-07-31T06:20:26;19.70;99.90
4701;DHT22;8724;51.272;6.554;2023-07-31T06:22:55;19.70;99.90
4701;DHT22;8724;51.272;6.554;2023-07-31T06:25:25;19.70;99.90
4701;DHT22;8724;51.272;6.554;2023-07-31T06:27:53;19.70;99.90
4701;DHT22;8724;51.272;6.554;2023-07-31T06:30:22;19.70;99.90
4701;DHT22;8724;51.272;6.554;2023-07-31T06:32:51;19.70;99.90
4701;DHT22;8724;51.272;6.554;2023-07-31T06:35:19;19.70;99.90
4701;DHT22;8724;51.272;6.554;2023-07-31T06:37:48;19.60;99.90
4701;DHT22;8724;51.272;6.554;2023-07-31T06:40:18;19.70;99.90
4701;DHT22;8724;51.272;6.554;2023-07-31T06:42:47;19.70;99.90
4701;DHT22;8724;51.272;6.554;2023-07-31T06:45:16;19.70;99.90
4701;DHT22;8724;51.272;6.554;2023-07-31T06:47:46;19.30;99.90
4701;DHT22;8724;51.272;6.554;2023-07-31T06:50:15;19.70;99.90
4701;DHT22;8724;51.272;6.554;2023-07-31T06:52:43;19.70;99.90
4701;DHT22;8724;51.272;6.554;2023-07-31T06:55:19;19.70;99.90
4701;DHT22;8724;51.272;6.554;2023-07-31T06:57:50;19.70;99.90
4701;DHT22;8724;51.272;6.554;2023-07-31T07:00:22;19.60;99.90
4701;DHT22;8724;51.272;6.554;2023-07-31T07:02:51;19.60;99.90
4701;DHT22;8724;51.272;6.554;2023-07-31T07:05:20;19.60;99.90
4701;DHT22;8724;51.272;6.554;2023-07-31T07:07:49;19.60;99.90
4701;DHT22;8724;51.272;6.554;2023-07-31T07:10:20;19.60;99.90
4701;DHT22;8724;51.272;6.554;2023-07-31T07:12:49;19.60;99.90
4701;DHT22;8724;51.272;6.554;2023-07-31T07:15:21;19.60;99.90
4701;DHT22;8724;51.272;6.554;2023-07-31T07:17:49;19.60;99.90
4701;DHT22;8724;51.272;6.554;2023-07-31T07:20:18;19.60;99.90
4701;DHT22;8724;51.272;6.554;2023-07-31T07:22:47;19.60;99.90
4701;DHT22;8724;51.272;6.554;2023-07-31T07:25:15;19.50;99.90
4701;DHT22;8724;51.272;6.554;2023-07-31T07:27:44;19.50;99.90
4701;DHT22;8724;51.272;6.554;2023-07-31T07:30:15;19.50;99.90
4701;DHT22;8724;51.272;6.554;2023-07-31T07:32:44;19.50;99.90
4701;DHT22;8724;51.272;6.554;2023-07-31T07:35:13;19.50;99.90
4701;DHT22;8724;51.272;6.554;2023-07-31T07:37:41;19.50;99.90
4701;DHT22;8724;51.272;6.554;2023-07-31T07:40:10;19.50;99.90
4701;DHT22;8724;51.272;6.554;2023-07-31T07:42:39;19.50;99.90
4701;DHT22;8724;51.272;6.554;2023-07-31T07:45:09;19.50;99.90
4701;DHT22;8724;51.272;6.554;2023-07-31T07:47:41;19.40;99.90
4701;DHT22;8724;51.272;6.554;2023-07-31T07:50:09;19.40;99.90
4701;DHT22;8724;51.272;6.554;2023-07-31T07:52:38;19.40;99.90
4701;DHT22;8724;51.272;6.554;2023-07-31T07:55:07;19.40;99.90
4701;DHT22;8724;51.272;6.554;2023-07-31T07:57:36;19.70;99.90
4701;DHT22;8724;51.272;6.554;2023-07-31T08:00:06;19.40;99.90
4701;DHT22;8724;51.272;6.554;2023-07-31T08:02:42;19.40;99.90
4701;DHT22;8724;51.272;6.554;2023-07-31T08:05:11;19.40;99.90
4701;DHT22;8724;51.272;6.554;2023-07-31T08:07:40;19.40;99.90
4701;DHT22;8724;51.272;6.554;2023-07-31T08:10:09;19.40;99.90
4701;DHT22;8724;51.272;6.554;2023-07-31T08:12:38;19.40;99.90
4701;DHT22;8724;51.272;6.554;2023-07-31T08:15:07;19.40;99.90
4701;DHT22;8724;51.272;6.554;2023-07-31T08:17:36;19.40;99.90
4701;DHT22;8724;51.272;6.554;2023-07-31T08:20:07;19.40;99.90
4701;DHT22;8724;51.272;6.554;2023-07-31T08:22:36;19.40;99.90
4701;DHT22;8724;51.272;6.554;2023-07-31T08:25:05;19.40;99.90
4701;DHT22;8724;51.272;6.554;2023-07-31T08:27:34;19.40;99.90
4701;DHT22;8724;51.272;6.554;2023-07-31T08:30:04;19.40;99.90
4701;DHT22;8724;51.272;6.554;2023-07-31T08:32:32;19.40;99.90
4701;DHT22;8724;51.272;6.554;2023-07-31T08:35:01;19.30;99.90
4701;DHT22;8724;51.272;6.554;2023-07-31T08:37:31;19.30;99.90
4701;DHT22;8724;51.272;6.554;2023-07-31T08:40:00;19.30;99.90
4701;DHT22;8724;51.272;6.554;2023-07-31T08:42:29;19.30;99.90
4701;DHT22;8724;51.272;6.554;2023-07-31T08:44:59;19.30;99.90
4701;DHT22;8724;51.272;6.554;2023-07-31T08:47:31;19.40;99.90
4701;DHT22;8724;51.272;6.554;2023-07-31T08:50:00;19.40;99.90
4701;DHT22;8724;51.272;6.554;2023-07-31T08:52:31;19.40;99.90
4701;DHT22;8724;51.272;6.554;2023-07-31T08:55:00;19.40;99.90
4701;DHT22;8724;51.272;6.554;2023-07-31T08:57:30;19.30;99.90
4701;DHT22;8724;51.272;6.554;2023-07-31T08:59:59;19.40;99.90
4701;DHT22;8724;51.272;6.554;2023-07-31T09:02:35;19.40;99.90
4701;DHT22;8724;51.272;6.554;2023-07-31T09:05:06;19.30;99.90
4701;DHT22;8724;51.272;6.554;2023-07-31T09:07:37;19.40;99.90
4701;DHT22;8724;51.272;6.554;2023-07-31T09:10:06;19.40;99.90
4701;DHT22;8724;51.272;6.554;2023-07-31T09:12:35;19.30;99.90
4701;DHT22;8724;51.272;6.554;2023-07-31T09:15:05;19.30;99.90
4701;DHT22;8724;51.272;6.554;2023-07-31T09:17:43;19.40;99.90
4701;DHT22;8724;51.272;6.554;2023-07-31T09:20:16;19.40;99.90
4701;DHT22;8724;51.272;6.554;2023-07-31T09:22:47;19.30;99.90
4701;DHT22;8724;51.272;6.554;2023-07-31T09:25:17;19.30;99.90
4701;DHT22;8724;51.272;6.554;2023-07-31T09:27:47;19.30;99.90
4701;DHT22;8724;51.272;6.554;2023-07-31T09:30:17;19.40;99.90
4701;DHT22;8724;51.272;6.554;2023-07-31T09:32:46;19.40;99.90
4701;DHT22;8724;51.272;6.554;2023-07-31T09:35:20;19.40;99.90
4701;DHT22;8724;51.272;6.554;2023-07-31T09:37:51;19.40;99.90
4701;DHT22;8724;51.272;6.554;2023-07-31T09:40:27;19.40;99.90
4701;DHT22;8724;51.272;6.554;2023-07-31T09:42:57;19.40;99.90
4701;DHT22;8724;51.272;6.554;2023-07-31T09:45:26;19.40;99.90
4701;DHT22;8724;51.272;6.554;2023-07-31T09:48:08;19.40;99.90
4701;DHT22;8724;51.272;6.554;2023-07-31T09:50:38;19.40;99.90
4701;DHT22;8724;51.272;6.554;2023-07-31T09:53:09;19.40;99.90
4701;DHT22;8724;51.272;6.554;2023-07-31T09:55:39;19.40;99.90
4701;DHT22;8724;51.272;6.554;2023-07-31T09:58:09;19.40;99.90
4701;DHT22;8724;51.272;6.554;2023-07-31T10:00:38;19.40;99.90
4701;DHT22;8724;51.272;6.554;2023-07-31T10:03:08;19.40;99.90
4701;DHT22;8724;51.272;6.554;2023-07-31T10:05:40;19.40;99.90
4701;DHT22;8724;51.272;6.554;2023-07-31T10:08:12;19.40;99.90
4701;DHT22;8724;51.272;6.554;2023-07-31T10:10:43;19.40;99.90
4701;DHT22;8724;51.272;6.554;2023-07-31T10:13:12;19.40;99.90
4701;DHT22;8724;51.272;6.554;2023-07-31T10:15:41;19.70;99.90
4701;DHT22;8724;51.272;6.554;2023-07-31T10:18:11;19.40;99.90
4701;DHT22;8724;51.272;6.554;2023-07-31T10:20:41;19.40;99.90
4701;DHT22;8724;51.272;6.554;2023-07-31T10:23:11;19.40;99.90
4701;DHT22;8724;51.272;6.554;2023-07-31T10:25:41;19.40;99.90
4701;DHT22;8724;51.272;6.554;2023-07-31T10:28:11;19.40;99.90
4701;DHT22;8724;51.272;6.554;2023-07-31T10:30:41;19.50;99.90
4701;DHT22;8724;51.272;6.554;2023-07-31T10:33:10;19.10;99.90
4701;DHT22;8724;51.272;6.554;2023-07-31T10:35:39;19.50;99.90
4701;DHT22;8724;51.272;6.554;2023-07-31T10:38:11;19.50;99.90
4701;DHT22;8724;51.272;6.554;2023-07-31T10:40:41;19.50;99.90
4701;DHT22;8724;51.272;6.554;2023-07-31T10:43:10;19.50;99.90
4701;DHT22;8724;51.272;6.554;2023-07-31T10:45:52;19.50;99.90
4701;DHT22;8724;51.272;6.554;2023-07-31T10:48:21;19.60;99.90
4701;DHT22;8724;51.272;6.554;2023-07-31T10:50:52;19.60;99.90
4701;DHT22;8724;51.272;6.554;2023-07-31T10:53:26;19.60;99.90
4701;DHT22;8724;51.272;6.554;2023-07-31T10:55:58;19.60;99.90
4701;DHT22;8724;51.272;6.554;2023-07-31T10:58:27;19.60;99.90
4701;DHT22;8724;51.272;6.554;2023-07-31T11:00:58;19.60;99.90
4701;DHT22;8724;51.272;6.554;2023-07-31T11:03:41;19.60;99.90
4701;DHT22;8724;51.272;6.554;2023-07-31T11:06:10;19.60;99.90
4701;DHT22;8724;51.272;6.554;2023-07-31T11:08:45;19.60;99.90
4701;DHT22;8724;51.272;6.554;2023-07-31T11:11:16;19.60;99.90
4701;DHT22;8724;51.272;6.554;2023-07-31T11:13:46;19.60;99.90
4701;DHT22;8724;51.272;6.554;2023-07-31T11:16:17;19.60;99.90
4701;DHT22;8724;51.272;6.554;2023-07-31T11:18:47;19.60;99.90
4701;DHT22;8724;51.272;6.554;2023-07-31T11:21:17;19.60;99.90
4701;DHT22;8724;51.272;6.554;2023-07-31T11:23:48;19.60;99.90
4701;DHT22;8724;51.272;6.554;2023-07-31T11:26:17;19.70;99.90
4701;DHT22;8724;51.272;6.554;2023-07-31T11:28:47;19.70;99.90
4701;DHT22;8724;51.272;6.554;2023-07-31T11:31:16;19.60;99.90
4701;DHT22;8724;51.272;6.554;2023-07-31T11:33:46;19.60;99.90
4701;DHT22;8724;51.272;6.554;2023-07-31T11:36:15;19.60;99.90
4701;DHT22;8724;51.272;6.554;2023-07-31T11:38:45;19.70;99.90
4701;DHT22;8724;51.272;6.554;2023-07-31T11:41:15;19.70;99.90
4701;DHT22;8724;51.272;6.554;2023-07-31T11:43:46;19.70;99.90
4701;DHT22;8724;51.272;6.554;2023-07-31T11:46:15;19.70;99.90
4701;DHT22;8724;51.272;6.554;2023-07-31T11:48:45;19.70;99.90
4701;DHT22;8724;51.272;6.554;2023-07-31T11:51:14;19.70;99.90
4701;DHT22;8724;51.272;6.554;2023-07-31T11:53:44;19.70;99.90
4701;DHT22;8724;51.272;6.554;2023-07-31T11:56:18;19.70;99.90
4701;DHT22;8724;51.272;6.554;2023-07-31T11:58:50;19.70;99.90
4701;DHT22;8724;51.272;6.554;2023-07-31T12:01:21;19.70;99.90
4701;DHT22;8724;51.272;6.554;2023-07-31T12:03:50;19.70;99.90
4701;DHT22;8724;51.272;6.554;2023-07-31T12:06:19;19.70;99.90
4701;DHT22;8724;51.272;6.554;2023-07-31T12:08:49;19.70;99.90
4701;DHT22;8724;51.272;6.554;2023-07-31T12:11:19;19.70;99.90
4701;DHT22;8724;51.272;6.554;2023-07-31T12:13:47;19.70;99.90
4701;DHT22;8724;51.272;6.554;2023-07-31T12:16:16;19.70;99.90
4701;DHT22;8724;51.272;6.554;2023-07-31T12:18:45;19.70;99.90
4701;DHT22;8724;51.272;6.554;2023-07-31T12:21:14;19.70;99.90
4701;DHT22;8724;51.272;6.554;2023-07-31T12:23:44;19.70;99.90
4701;DHT22;8724;51.272;6.554;2023-07-31T12:26:14;19.70;99.90
4701;DHT22;8724;51.272;6.554;2023-07-31T12:28:45;19.70;99.90
4701;DHT22;8724;51.272;6.554;2023-07-31T12:31:16;19.70;99.90
4701;DHT22;8724;51.272;6.554;2023-07-31T12:33:46;19.70;99.90
4701;DHT22;8724;51.272;6.554;2023-07-31T12:36:17;19.70;99.90
4701;DHT22;8724;51.272;6.554;2023-07-31T12:38:46;19.70;99.90
4701;DHT22;8724;51.272;6.554;2023-07-31T12:41:15;19.70;99.90
4701;DHT22;8724;51.272;6.554;2023-07-31T12:43:45;19.70;99.90
4701;DHT22;8724;51.272;6.554;2023-07-31T12:46:14;19.70;99.90
4701;DHT22;8724;51.272;6.554;2023-07-31T12:48:44;19.70;99.90
4701;DHT22;8724;51.272;6.554;2023-07-31T12:51:13;19.70;99.90
4701;DHT22;8724;51.272;6.554;2023-07-31T12:53:41;19.70;99.90
4701;DHT22;8724;51.272;6.554;2023-07-31T12:56:10;19.70;99.90
4701;DHT22;8724;51.272;6.554;2023-07-31T12:58:38;19.80;99.90
4701;DHT22;8724;51.272;6.554;2023-07-31T13:01:08;19.80;99.90
4701;DHT22;8724;51.272;6.554;2023-07-31T13:03:37;19.80;99.90
4701;DHT22;8724;51.272;6.554;2023-07-31T13:06:06;19.80;99.90
4701;DHT22;8724;51.272;6.554;2023-07-31T13:08:34;19.80;99.90
4701;DHT22;8724;51.272;6.554;2023-07-31T13:11:03;19.80;99.90
4701;DHT22;8724;51.272;6.554;2023-07-31T13:13:32;19.80;99.90
4701;DHT22;8724;51.272;6.554;2023-07-31T13:16:00;19.80;99.90
4701;DHT22;8724;51.272;6.554;2023-07-31T13:18:30;19.90;99.90
4701;DHT22;8724;51.272;6.554;2023-07-31T13:20:59;19.80;99.90
4701;DHT22;8724;51.272;6.554;2023-07-31T13:23:27;19.90;99.90
4701;DHT22;8724;51.272;6.554;2023-07-31T13:25:56;19.90;99.90
4701;DHT22;8724;51.272;6.554;2023-07-31T13:28:24;19.90;99.90
4701;DHT22;8724;51.272;6.554;2023-07-31T13:30:53;19.90;99.90
4701;DHT22;8724;51.272;6.554;2023-07-31T13:33:22;19.90;99.90
4701;DHT22;8724;51.272;6.554;2023-07-31T13:36:05;19.90;99.90
4701;DHT22;8724;51.272;6.554;2023-07-31T13:38:34;20.00;99.90
4701;DHT22;8724;51.272;6.554;2023-07-31T13:41:03;20.00;99.90
4701;DHT22;8724;51.272;6.554;2023-07-31T13:43:32;20.00;99.90
4701;DHT22;8724;51.272;6.554;2023-07-31T13:46:01;20.10;99.90
4701;DHT22;8724;51.272;6.554;2023-07-31T13:48:34;20.10;99.90
4701;DHT22;8724;51.272;6.554;2023-07-31T13:51:04;20.10;99.90
4701;DHT22;8724;51.272;6.554;2023-07-31T13:53:33;20.10;99.90
4701;DHT22;8724;51.272;6.554;2023-07-31T13:56:02;20.10;99.90
4701;DHT22;8724;51.272;6.554;2023-07-31T13:58:32;20.10;99.90
4701;DHT22;8724;51.272;6.554;2023-07-31T14:01:00;20.10;99.90
4701;DHT22;8724;51.272;6.554;2023-07-31T14:03:30;20.10;99.90
4701;DHT22;8724;51.272;6.554;2023-07-31T14:05:59;20.10;99.90
4701;DHT22;8724;51.272;6.554;2023-07-31T14:08:29;20.10;99.90
4701;DHT22;8724;51.272;6.554;2023-07-31T14:10:58;20.10;99.90
4701;DHT22;8724;51.272;6.554;2023-07-31T14:13:27;20.10;99.90
4701;DHT22;8724;51.272;6.554;2023-07-31T14:15:55;20.10;99.90
4701;DHT22;8724;51.272;6.554;2023-07-31T14:18:24;20.10;99.90
4701;DHT22;8724;51.272;6.554;2023-07-31T14:20:53;20.10;99.90
4701;DHT22;8724;51.272;6.554;2023-07-31T14:23:21;20.10;99.90
4701;DHT22;8724;51.272;6.554;2023-07-31T14:25:51;20.10;99.90
4701;DHT22;8724;51.272;6.554;2023-07-31T14:28:20;20.10;99.90
4701;DHT22;8724;51.272;6.554;2023-07-31T14:30:48;20.10;99.90
4701;DHT22;8724;51.272;6.554;2023-07-31T14:33:17;20.10;99.90
4701;DHT22;8724;51.272;6.554;2023-07-31T14:35:45;20.10;99.90
4701;DHT22;8724;51.272;6.554;2023-07-31T14:38:14;20.10;99.90
4701;DHT22;8724;51.272;6.554;2023-07-31T14:40:42;20.10;99.90
4701;DHT22;8724;51.272;6.554;2023-07-31T14:43:12;20.10;99.90
4701;DHT22;8724;51.272;6.554;2023-07-31T14:45:41;20.10;99.90
4701;DHT22;8724;51.272;6.554;2023-07-31T14:48:09;20.10;99.90
4701;DHT22;8724;51.272;6.554;2023-07-31T14:50:38;20.10;99.90
4701;DHT22;8724;51.272;6.554;2023-07-31T14:53:06;20.10;99.90
4701;DHT22;8724;51.272;6.554;2023-07-31T14:55:35;20.10;99.90
4701;DHT22;8724;51.272;6.554;2023-07-31T14:58:03;20.10;99.90
4701;DHT22;8724;51.272;6.554;2023-07-31T15:00:33;20.20;99.90
4701;DHT22;8724;51.272;6.554;2023-07-31T15:03:02;20.10;99.90
4701;DHT22;8724;51.272;6.554;2023-07-31T15:05:31;20.10;99.90
4701;DHT22;8724;51.272;6.554;2023-07-31T15:07:59;20.10;99.90
4701;DHT22;8724;51.272;6.554;2023-07-31T15:10:28;20.10;99.90
4701;DHT22;8724;51.272;6.554;2023-07-31T15:12:57;20.20;99.90
4701;DHT22;8724;51.272;6.554;2023-07-31T15:15:25;20.20;99.90
4701;DHT22;8724;51.272;6.554;2023-07-31T15:17:55;20.20;99.90
4701;DHT22;8724;51.272;6.554;2023-07-31T15:20:24;20.20;99.90
4701;DHT22;8724;51.272;6.554;2023-07-31T15:22:52;20.20;99.90
4701;DHT22;8724;51.272;6.554;2023-07-31T15:25:21;20.20;99.90
4701;DHT22;8724;51.272;6.554;2023-07-31T15:27:49;20.20;99.90
4701;DHT22;8724;51.272;6.554;2023-07-31T15:30:18;20.20;99.90
4701;DHT22;8724;51.272;6.554;2023-07-31T15:32:46;20.20;99.90
4701;DHT22;8724;51.272;6.554;2023-07-31T15:35:18;20.20;99.90
4701;DHT22;8724;51.272;6.554;2023-07-31T15:37:48;20.20;99.90
4701;DHT22;8724;51.272;6.554;2023-07-31T15:40:17;20.20;99.90
4701;DHT22;8724;51.272;6.554;2023-07-31T15:42:45;20.20;99.90
4701;DHT22;8724;51.272;6.554;2023-07-31T15:45:14;20.10;99.90
4701;DHT22;8724;51.272;6.554;2023-07-31T15:47:42;20.20;99.90
4701;DHT22;8724;51.272;6.554;2023-07-31T15:50:11;20.10;99.90
4701;DHT22;8724;51.272;6.554;2023-07-31T15:52:41;20.10;99.90
4701;DHT22;8724;51.272;6.554;2023-07-31T15:55:10;20.10;99.90
4701;DHT22;8724;51.272;6.554;2023-07-31T15:57:39;20.10;99.90
4701;DHT22;8724;51.272;6.554;2023-07-31T16:00:08;20.10;99.90
4701;DHT22;8724;51.272;6.554;2023-07-31T16:02:38;20.10;99.90
4701;DHT22;8724;51.272;6.554;2023-07-31T16:05:06;20.50;99.90
4701;DHT22;8724;51.272;6.554;2023-07-31T16:07:35;20.10;99.90
4701;DHT22;8724;51.272;6.554;2023-07-31T16:10:07;20.10;99.90
4701;DHT22;8724;51.272;6.554;2023-07-31T16:12:36;19.70;99.90
4701;DHT22;8724;51.272;6.554;2023-07-31T16:15:06;20.10;99.90
4701;DHT22;8724;51.272;6.554;2023-07-31T16:17:35;20.00;99.90
4701;DHT22;8724;51.272;6.554;2023-07-31T16:20:05;20.00;99.90
4701;DHT22;8724;51.272;6.554;2023-07-31T16:22:34;20.00;99.90